Terminal Aerodrome Forecast
Issued by NWS

Home | Current Version | Previous Version | Graphics & Text | Print | Product List | Glossary On
Versions: 1 2 3 4 5 6 7 8 9 10 11 12 13 14 15 16 17 18 19 20 21 22 23 24
000
FTUS43 KGRB 291400 AAA
TAFCWA
TAF AMD
KCWA 291439Z 2915/3012 12007KT 1/4SM FG OVC002
      TEMPO 2915/2917 2SM -SHRA BR OVC006
     FM291700 18008KT P6SM VCSH BKN008 OVC025
     FM292100 21010KT P6SM VCSH SCT015 BKN050
     FM300000 VRB03KT 4SM SHRA BR OVC015=

USA.gov is the U.S. government's official web portal to all federal, state and local government web resources and services.